sensor_id;sensor_type;location;lat;lon;timestamp;pressure;altitude;pressure_sealevel;temperature;humidity
69411;BME280;56604;48.652;9.194;2022-12-18T00:00:43;97308.63;;;-9.11;86.82
69411;BME280;56604;48.652;9.194;2022-12-18T00:03:09;97301.31;;;-9.15;86.61
69411;BME280;56604;48.652;9.194;2022-12-18T00:05:35;97308.63;;;-9.23;86.51
69411;BME280;56604;48.652;9.194;2022-12-18T00:08:01;97314.66;;;-9.24;85.56
69411;BME280;56604;48.652;9.194;2022-12-18T00:10:27;97318.41;;;-9.30;86.56
69411;BME280;56604;48.652;9.194;2022-12-18T00:12:52;97319.88;;;-9.40;85.77
69411;BME280;56604;48.652;9.194;2022-12-18T00:15:18;97317.34;;;-9.40;85.56
69411;BME280;56604;48.652;9.194;2022-12-18T00:17:44;97318.75;;;-9.49;86.65
69411;BME280;56604;48.652;9.194;2022-12-18T00:20:09;97306.97;;;-9.37;86.63
69411;BME280;56604;48.652;9.194;2022-12-18T00:22:35;97314.06;;;-9.42;86.28
69411;BME280;56604;48.652;9.194;2022-12-18T00:25:01;97310.97;;;-9.33;86.51
69411;BME280;56604;48.652;9.194;2022-12-18T00:27:26;97315.13;;;-9.32;86.28
69411;BME280;56604;48.652;9.194;2022-12-18T00:29:54;97320.41;;;-9.35;86.70
69411;BME280;56604;48.652;9.194;2022-12-18T00:32:20;97315.56;;;-9.13;87.65
69411;BME280;56604;48.652;9.194;2022-12-18T00:34:46;97308.84;;;-8.88;89.83
69411;BME280;56604;48.652;9.194;2022-12-18T00:37:11;97305.69;;;-8.92;90.64
69411;BME280;56604;48.652;9.194;2022-12-18T00:39:37;97316.59;;;-9.02;89.49
69411;BME280;56604;48.652;9.194;2022-12-18T00:42:02;97326.06;;;-9.04;88.83
69411;BME280;56604;48.652;9.194;2022-12-18T00:45:06;97325.97;;;-9.03;87.48
69411;BME280;56604;48.652;9.194;2022-12-18T00:47:32;97327.38;;;-9.12;88.20
69411;BME280;56604;48.652;9.194;2022-12-18T00:49:57;97328.19;;;-9.11;89.14
69411;BME280;56604;48.652;9.194;2022-12-18T00:52:22;97327.19;;;-9.09;87.96
69411;BME280;56604;48.652;9.194;2022-12-18T00:54:48;97325.75;;;-9.13;88.38
69411;BME280;56604;48.652;9.194;2022-12-18T00:57:13;97327.59;;;-9.15;87.53
69411;BME280;56604;48.652;9.194;2022-12-18T00:59:38;97328.81;;;-9.08;88.09
69411;BME280;56604;48.652;9.194;2022-12-18T01:02:03;97320.88;;;-9.03;89.62
69411;BME280;56604;48.652;9.194;2022-12-18T01:04:31;97329.63;;;-9.07;88.94
69411;BME280;56604;48.652;9.194;2022-12-18T01:06:57;97330.84;;;-9.13;89.08
69411;BME280;56604;48.652;9.194;2022-12-18T01:09:22;97337.38;;;-9.09;88.34
69411;BME280;56604;48.652;9.194;2022-12-18T01:11:47;97333.28;;;-9.11;89.38
69411;BME280;56604;48.652;9.194;2022-12-18T01:14:12;97329.59;;;-9.20;89.20
69411;BME280;56604;48.652;9.194;2022-12-18T01:16:38;97318.13;;;-9.13;88.90
69411;BME280;56604;48.652;9.194;2022-12-18T01:19:03;97321.75;;;-9.17;90.11
69411;BME280;56604;48.652;9.194;2022-12-18T01:21:29;97319.00;;;-9.26;90.10
69411;BME280;56604;48.652;9.194;2022-12-18T01:23:55;97320.53;;;-9.24;88.60
69411;BME280;56604;48.652;9.194;2022-12-18T01:26:21;97324.31;;;-9.17;88.98
69411;BME280;56604;48.652;9.194;2022-12-18T01:28:47;97326.56;;;-9.12;89.05
69411;BME280;56604;48.652;9.194;2022-12-18T01:31:24;97322.91;;;-9.08;88.30
69411;BME280;56604;48.652;9.194;2022-12-18T01:33:50;97323.75;;;-9.08;88.04
69411;BME280;56604;48.652;9.194;2022-12-18T01:36:22;97316.78;;;-9.06;87.92
69411;BME280;56604;48.652;9.194;2022-12-18T01:38:48;97322.69;;;-9.05;87.93
69411;BME280;56604;48.652;9.194;2022-12-18T01:41:16;97320.25;;;-9.07;87.33
69411;BME280;56604;48.652;9.194;2022-12-18T01:46:06;97328.63;;;-9.04;87.53
69411;BME280;56604;48.652;9.194;2022-12-18T01:48:32;97319.03;;;-9.01;87.74
69411;BME280;56604;48.652;9.194;2022-12-18T01:50:57;97332.72;;;-9.02;87.91
69411;BME280;56604;48.652;9.194;2022-12-18T01:53:23;97340.44;;;-8.91;87.47
69411;BME280;56604;48.652;9.194;2022-12-18T01:55:54;97328.34;;;-8.87;88.07
69411;BME280;56604;48.652;9.194;2022-12-18T01:58:24;97322.84;;;-8.81;88.15
69411;BME280;56604;48.652;9.194;2022-12-18T02:00:54;97314.38;;;-8.81;87.24
69411;BME280;56604;48.652;9.194;2022-12-18T02:03:19;97322.53;;;-8.76;87.63
69411;BME280;56604;48.652;9.194;2022-12-18T02:11:12;97313.94;;;-8.63;87.45
69411;BME280;56604;48.652;9.194;2022-12-18T02:13:55;97312.72;;;-8.57;86.97
69411;BME280;56604;48.652;9.194;2022-12-18T02:16:43;97331.50;;;-8.58;87.81
69411;BME280;56604;48.652;9.194;2022-12-18T02:24:45;97323.75;;;-8.56;88.01
69411;BME280;56604;48.652;9.194;2022-12-18T02:27:16;97318.25;;;-8.50;88.12
69411;BME280;56604;48.652;9.194;2022-12-18T02:29:50;97319.84;;;-8.49;86.74
69411;BME280;56604;48.652;9.194;2022-12-18T02:32:38;97310.91;;;-8.42;88.07
69411;BME280;56604;48.652;9.194;2022-12-18T02:35:06;97316.88;;;-8.43;87.20
69411;BME280;56604;48.652;9.194;2022-12-18T02:37:33;97318.31;;;-8.39;88.19
69411;BME280;56604;48.652;9.194;2022-12-18T02:40:00;97328.38;;;-8.38;87.02
69411;BME280;56604;48.652;9.194;2022-12-18T02:42:27;97332.56;;;-8.37;88.07
69411;BME280;56604;48.652;9.194;2022-12-18T02:44:53;97336.19;;;-8.39;86.92
69411;BME280;56604;48.652;9.194;2022-12-18T02:47:22;97338.09;;;-8.43;87.32
69411;BME280;56604;48.652;9.194;2022-12-18T02:50:22;97348.19;;;-8.41;87.01
69411;BME280;56604;48.652;9.194;2022-12-18T02:56:00;97344.53;;;-8.50;87.58
69411;BME280;56604;48.652;9.194;2022-12-18T03:01:14;97340.03;;;-8.46;86.68
69411;BME280;56604;48.652;9.194;2022-12-18T03:03:47;97333.75;;;-8.53;88.06
69411;BME280;56604;48.652;9.194;2022-12-18T03:06:21;97343.00;;;-8.52;87.54
69411;BME280;56604;48.652;9.194;2022-12-18T03:08:51;97338.41;;;-8.60;87.53
69411;BME280;56604;48.652;9.194;2022-12-18T03:11:19;97329.84;;;-8.72;86.66
69411;BME280;56604;48.652;9.194;2022-12-18T03:14:06;97326.19;;;-8.68;85.87
69411;BME280;56604;48.652;9.194;2022-12-18T03:16:33;97330.47;;;-8.81;86.08
69411;BME280;56604;48.652;9.194;2022-12-18T03:19:07;97345.03;;;-8.83;86.00
69411;BME280;56604;48.652;9.194;2022-12-18T03:21:39;97335.94;;;-9.00;86.34
69411;BME280;56604;48.652;9.194;2022-12-18T03:24:07;97343.09;;;-8.92;85.30
69411;BME280;56604;48.652;9.194;2022-12-18T03:26:35;97341.25;;;-9.03;85.60
69411;BME280;56604;48.652;9.194;2022-12-18T03:29:07;97351.84;;;-9.09;85.40
69411;BME280;56604;48.652;9.194;2022-12-18T03:31:35;97353.03;;;-9.15;85.65
69411;BME280;56604;48.652;9.194;2022-12-18T03:34:06;97358.94;;;-9.27;84.48
69411;BME280;56604;48.652;9.194;2022-12-18T03:36:34;97355.13;;;-9.34;86.14
69411;BME280;56604;48.652;9.194;2022-12-18T03:38:59;97362.44;;;-9.42;85.32
69411;BME280;56604;48.652;9.194;2022-12-18T03:41:32;97355.31;;;-9.50;85.08
69411;BME280;56604;48.652;9.194;2022-12-18T03:44:21;97358.84;;;-9.53;86.69
69411;BME280;56604;48.652;9.194;2022-12-18T03:46:54;97356.31;;;-9.53;86.60
69411;BME280;56604;48.652;9.194;2022-12-18T03:49:29;97345.78;;;-9.61;86.75
69411;BME280;56604;48.652;9.194;2022-12-18T03:52:10;97352.94;;;-9.53;85.76
69411;BME280;56604;48.652;9.194;2022-12-18T03:54:39;97353.75;;;-9.53;86.81
69411;BME280;56604;48.652;9.194;2022-12-18T03:57:13;97357.19;;;-9.54;87.07
69411;BME280;56604;48.652;9.194;2022-12-18T03:59:41;97361.47;;;-9.54;87.43
69411;BME280;56604;48.652;9.194;2022-12-18T04:02:08;97349.38;;;-9.51;88.02
69411;BME280;56604;48.652;9.194;2022-12-18T04:04:35;97351.91;;;-9.51;87.59
69411;BME280;56604;48.652;9.194;2022-12-18T04:07:03;97353.56;;;-9.49;87.89
69411;BME280;56604;48.652;9.194;2022-12-18T04:09:31;97361.09;;;-9.48;87.14
69411;BME280;56604;48.652;9.194;2022-12-18T04:11:58;97351.09;;;-9.51;87.60
69411;BME280;56604;48.652;9.194;2022-12-18T04:14:23;97351.09;;;-9.51;87.79
69411;BME280;56604;48.652;9.194;2022-12-18T04:16:48;97355.38;;;-9.52;88.49
69411;BME280;56604;48.652;9.194;2022-12-18T04:19:14;97365.75;;;-9.55;88.52
69411;BME280;56604;48.652;9.194;2022-12-18T04:21:39;97362.00;;;-9.49;87.50
69411;BME280;56604;48.652;9.194;2022-12-18T04:24:05;97350.53;;;-9.42;87.92
69411;BME280;56604;48.652;9.194;2022-12-18T04:26:30;97356.44;;;-9.41;87.13
69411;BME280;56604;48.652;9.194;2022-12-18T04:28:55;97354.78;;;-9.42;88.23
69411;BME280;56604;48.652;9.194;2022-12-18T04:31:21;97351.34;;;-9.41;87.51
69411;BME280;56604;48.652;9.194;2022-12-18T04:33:46;97358.25;;;-9.43;86.66
69411;BME280;56604;48.652;9.194;2022-12-18T04:36:12;97358.25;;;-9.43;87.42
69411;BME280;56604;48.652;9.194;2022-12-18T04:38:37;97368.78;;;-9.35;87.51
69411;BME280;56604;48.652;9.194;2022-12-18T04:41:03;97370.22;;;-9.31;88.26
69411;BME280;56604;48.652;9.194;2022-12-18T04:43:28;97377.84;;;-9.31;87.84
69411;BME280;56604;48.652;9.194;2022-12-18T04:45:53;97370.94;;;-9.29;87.84
69411;BME280;56604;48.652;9.194;2022-12-18T04:48:25;97367.78;;;-9.33;88.07
69411;BME280;56604;48.652;9.194;2022-12-18T04:50:51;97357.47;;;-9.31;87.19
69411;BME280;56604;48.652;9.194;2022-12-18T04:53:16;97362.47;;;-9.30;87.52
69411;BME280;56604;48.652;9.194;2022-12-18T04:55:42;97365.84;;;-9.29;87.40
69411;BME280;56604;48.652;9.194;2022-12-18T04:58:07;97359.50;;;-9.36;87.40
69411;BME280;56604;48.652;9.194;2022-12-18T05:00:32;97351.16;;;-9.38;87.28
69411;BME280;56604;48.652;9.194;2022-12-18T05:03:00;97345.06;;;-9.36;88.20
69411;BME280;56604;48.652;9.194;2022-12-18T05:05:26;97340.38;;;-9.29;88.67
69411;BME280;56604;48.652;9.194;2022-12-18T05:07:52;97343.13;;;-9.19;89.17
69411;BME280;56604;48.652;9.194;2022-12-18T05:10:17;97344.69;;;-9.17;88.35
69411;BME280;56604;48.652;9.194;2022-12-18T05:12:42;97336.84;;;-9.14;87.98
69411;BME280;56604;48.652;9.194;2022-12-18T05:15:23;97334.28;;;-9.14;88.55
69411;BME280;56604;48.652;9.194;2022-12-18T05:17:48;97341.03;;;-9.13;88.38
69411;BME280;56604;48.652;9.194;2022-12-18T05:20:14;97344.28;;;-9.11;89.00
69411;BME280;56604;48.652;9.194;2022-12-18T05:22:39;97351.03;;;-9.10;88.99
69411;BME280;56604;48.652;9.194;2022-12-18T05:25:04;97352.66;;;-9.09;89.21
69411;BME280;56604;48.652;9.194;2022-12-18T05:27:30;97345.72;;;-9.07;89.26
69411;BME280;56604;48.652;9.194;2022-12-18T05:29:55;97351.63;;;-9.06;88.48
69411;BME280;56604;48.652;9.194;2022-12-18T05:32:20;97349.91;;;-9.06;88.82
69411;BME280;56604;48.652;9.194;2022-12-18T05:34:46;97363.75;;;-9.10;89.52
69411;BME280;56604;48.652;9.194;2022-12-18T05:37:11;97364.16;;;-9.16;88.49
69411;BME280;56604;48.652;9.194;2022-12-18T05:39:36;97365.78;;;-9.15;88.43
69411;BME280;56604;48.652;9.194;2022-12-18T05:42:01;97368.53;;;-9.18;89.11
69411;BME280;56604;48.652;9.194;2022-12-18T05:44:27;97373.63;;;-9.18;88.44
69411;BME280;56604;48.652;9.194;2022-12-18T05:46:52;97375.22;;;-9.17;88.59
69411;BME280;56604;48.652;9.194;2022-12-18T05:49:17;97367.31;;;-9.12;89.87
69411;BME280;56604;48.652;9.194;2022-12-18T05:51:43;97378.09;;;-9.09;88.87
69411;BME280;56604;48.652;9.194;2022-12-18T05:54:08;97364.56;;;-9.09;90.05
69411;BME280;56604;48.652;9.194;2022-12-18T05:56:33;97355.00;;;-9.06;89.65
69411;BME280;56604;48.652;9.194;2022-12-18T05:58:59;97361.22;;;-9.10;88.98
69411;BME280;56604;48.652;9.194;2022-12-18T06:01:26;97360.09;;;-9.06;89.24
69411;BME280;56604;48.652;9.194;2022-12-18T06:03:51;97356.84;;;-9.08;90.25
69411;BME280;56604;48.652;9.194;2022-12-18T06:06:19;97353.91;;;-9.01;90.50
69411;BME280;56604;48.652;9.194;2022-12-18T06:08:45;97342.69;;;-8.61;90.72
69411;BME280;56604;48.652;9.194;2022-12-18T06:11:11;97349.41;;;-8.60;91.42
69411;BME280;56604;48.652;9.194;2022-12-18T06:13:37;97346.69;;;-8.56;91.22
69411;BME280;56604;48.652;9.194;2022-12-18T06:16:04;97361.34;;;-8.60;92.03
69411;BME280;56604;48.652;9.194;2022-12-18T06:18:31;97365.44;;;-8.57;91.31
69411;BME280;56604;48.652;9.194;2022-12-18T06:20:57;97366.88;;;-8.53;91.67
69411;BME280;56604;48.652;9.194;2022-12-18T06:23:23;97374.25;;;-9.01;89.66
69411;BME280;56604;48.652;9.194;2022-12-18T06:25:48;97381.03;;;-9.55;85.95
69411;BME280;56604;48.652;9.194;2022-12-18T06:28:13;97378.28;;;-9.52;84.15
69411;BME280;56604;48.652;9.194;2022-12-18T06:30:39;97376.31;;;-9.61;83.92
69411;BME280;56604;48.652;9.194;2022-12-18T06:33:04;97378.41;;;-9.53;85.83
69411;BME280;56604;48.652;9.194;2022-12-18T06:35:29;97372.72;;;-9.44;87.12
69411;BME280;56604;48.652;9.194;2022-12-18T06:37:56;97385.59;;;-9.33;89.12
69411;BME280;56604;48.652;9.194;2022-12-18T06:40:21;97389.47;;;-9.27;89.50
69411;BME280;56604;48.652;9.194;2022-12-18T06:42:47;97392.56;;;-9.22;89.13
69411;BME280;56604;48.652;9.194;2022-12-18T06:45:15;97392.34;;;-9.19;89.65
69411;BME280;56604;48.652;9.194;2022-12-18T06:47:40;97398.25;;;-9.18;89.91
69411;BME280;56604;48.652;9.194;2022-12-18T06:50:06;97406.63;;;-9.16;89.08
69411;BME280;56604;48.652;9.194;2022-12-18T06:52:32;97401.63;;;-9.18;90.07
69411;BME280;56604;48.652;9.194;2022-12-18T06:54:58;97396.66;;;-9.07;90.35
69411;BME280;56604;48.652;9.194;2022-12-18T06:57:23;97396.47;;;-9.03;90.05
69411;BME280;56604;48.652;9.194;2022-12-18T06:59:49;97390.56;;;-8.91;91.28
69411;BME280;56604;48.652;9.194;2022-12-18T07:02:14;97395.47;;;-8.88;91.35
69411;BME280;56604;48.652;9.194;2022-12-18T07:04:39;97398.94;;;-8.89;91.40
69411;BME280;56604;48.652;9.194;2022-12-18T07:07:05;97402.59;;;-8.93;90.98
69411;BME280;56604;48.652;9.194;2022-12-18T07:11:57;97409.13;;;-8.89;90.31
69411;BME280;56604;48.652;9.194;2022-12-18T07:14:23;97408.91;;;-8.86;90.79
69411;BME280;56604;48.652;9.194;2022-12-18T07:16:48;97418.31;;;-8.87;89.67
69411;BME280;56604;48.652;9.194;2022-12-18T07:19:13;97421.84;;;-8.89;89.70
69411;BME280;56604;48.652;9.194;2022-12-18T07:21:39;97419.34;;;-8.64;90.11
69411;BME280;56604;48.652;9.194;2022-12-18T07:24:04;97418.75;;;-8.67;90.20
69411;BME280;56604;48.652;9.194;2022-12-18T07:26:30;97421.81;;;-8.49;89.88
69411;BME280;56604;48.652;9.194;2022-12-18T07:28:57;97425.03;;;-8.34;89.54
69411;BME280;56604;48.652;9.194;2022-12-18T07:31:22;97414.66;;;-8.19;88.73
69411;BME280;56604;48.652;9.194;2022-12-18T07:33:49;97418.91;;;-8.06;89.33
69411;BME280;56604;48.652;9.194;2022-12-18T07:36:15;97421.94;;;-7.88;88.61
69411;BME280;56604;48.652;9.194;2022-12-18T07:38:41;97416.84;;;-7.76;88.20
69411;BME280;56604;48.652;9.194;2022-12-18T07:41:11;97414.00;;;-7.47;87.98
69411;BME280;56604;48.652;9.194;2022-12-18T07:43:37;97411.94;;;-7.18;86.86
69411;BME280;56604;48.652;9.194;2022-12-18T07:46:03;97412.38;;;-7.00;87.11
69411;BME280;56604;48.652;9.194;2022-12-18T07:48:29;97415.22;;;-6.81;86.75
69411;BME280;56604;48.652;9.194;2022-12-18T07:51:04;97415.06;;;-6.90;86.55
69411;BME280;56604;48.652;9.194;2022-12-18T07:53:32;97413.22;;;-6.88;86.92
69411;BME280;56604;48.652;9.194;2022-12-18T07:56:08;97421.81;;;-6.54;87.47
69411;BME280;56604;48.652;9.194;2022-12-18T07:58:35;97429.97;;;-6.26;86.61
69411;BME280;56604;48.652;9.194;2022-12-18T08:01:09;97428.16;;;-6.13;85.46
69411;BME280;56604;48.652;9.194;2022-12-18T08:03:35;97428.59;;;-6.30;84.85
69411;BME280;56604;48.652;9.194;2022-12-18T08:06:03;97436.53;;;-6.22;85.85
69411;BME280;56604;48.652;9.194;2022-12-18T08:08:29;97426.88;;;-6.19;85.84
69411;BME280;56604;48.652;9.194;2022-12-18T08:10:55;97416.88;;;-5.99;86.05
69411;BME280;56604;48.652;9.194;2022-12-18T08:13:20;97416.72;;;-5.87;84.91
69411;BME280;56604;48.652;9.194;2022-12-18T08:15:46;97423.63;;;-5.98;86.43
69411;BME280;56604;48.652;9.194;2022-12-18T08:18:11;97429.16;;;-5.59;86.28
69411;BME280;56604;48.652;9.194;2022-12-18T08:20:37;97423.28;;;-5.28;84.38
69411;BME280;56604;48.652;9.194;2022-12-18T08:23:02;97429.97;;;-5.59;82.98
69411;BME280;56604;48.652;9.194;2022-12-18T08:25:27;97420.53;;;-5.04;82.40
69411;BME280;56604;48.652;9.194;2022-12-18T08:27:53;97424.75;;;-4.82;81.98
69411;BME280;56604;48.652;9.194;2022-12-18T08:30:18;97423.53;;;-4.45;80.21
69411;BME280;56604;48.652;9.194;2022-12-18T08:32:44;97410.13;;;-3.97;77.52
69411;BME280;56604;48.652;9.194;2022-12-18T08:35:09;97414.09;;;-3.53;76.31
69411;BME280;56604;48.652;9.194;2022-12-18T08:37:36;97409.00;;;-3.24;75.02
69411;BME280;56604;48.652;9.194;2022-12-18T08:40:02;97409.81;;;-2.75;73.41
69411;BME280;56604;48.652;9.194;2022-12-18T08:42:27;97405.34;;;-2.53;72.15
69411;BME280;56604;48.652;9.194;2022-12-18T08:45:11;97404.66;;;-2.36;71.28
69411;BME280;56604;48.652;9.194;2022-12-18T08:47:36;97410.34;;;-2.42;70.46
69411;BME280;56604;48.652;9.194;2022-12-18T08:50:02;97403.44;;;-2.71;71.24
69411;BME280;56604;48.652;9.194;2022-12-18T08:52:27;97420.06;;;-3.43;73.61
69411;BME280;56604;48.652;9.194;2022-12-18T08:54:53;97407.66;;;-3.08;73.63
69411;BME280;56604;48.652;9.194;2022-12-18T08:57:18;97419.59;;;-3.57;73.97
69411;BME280;56604;48.652;9.194;2022-12-18T08:59:44;97420.19;;;-3.85;75.21
69411;BME280;56604;48.652;9.194;2022-12-18T09:02:10;97421.00;;;-3.84;75.80
69411;BME280;56604;48.652;9.194;2022-12-18T09:04:36;97404.94;;;-3.26;73.13
69411;BME280;56604;48.652;9.194;2022-12-18T09:07:01;97403.59;;;-3.71;74.10
69411;BME280;56604;48.652;9.194;2022-12-18T09:09:26;97397.63;;;-3.11;72.66
69411;BME280;56604;48.652;9.194;2022-12-18T09:11:52;97394.09;;;-3.10;72.52
69411;BME280;56604;48.652;9.194;2022-12-18T09:14:17;97392.34;;;-2.42;70.70
69411;BME280;56604;48.652;9.194;2022-12-18T09:16:42;97390.19;;;-2.66;71.20
69411;BME280;56604;48.652;9.194;2022-12-18T09:19:08;97398.75;;;-3.04;71.63
69411;BME280;56604;48.652;9.194;2022-12-18T09:21:37;97392.09;;;-2.11;69.89
69411;BME280;56604;48.652;9.194;2022-12-18T09:24:04;97391.50;;;-2.33;69.93
69411;BME280;56604;48.652;9.194;2022-12-18T09:26:30;97382.22;;;-2.73;70.42
69411;BME280;56604;48.652;9.194;2022-12-18T09:28:56;97395.44;;;-2.48;69.60
69411;BME280;56604;48.652;9.194;2022-12-18T09:31:22;97384.97;;;-1.90;69.03
69411;BME280;56604;48.652;9.194;2022-12-18T09:33:48;97378.69;;;-1.77;68.48
69411;BME280;56604;48.652;9.194;2022-12-18T09:36:15;97381.81;;;-1.84;68.24
69411;BME280;56604;48.652;9.194;2022-12-18T09:38:42;97387.91;;;-2.12;67.35
69411;BME280;56604;48.652;9.194;2022-12-18T09:44:50;97379.63;;;-1.51;67.62
69411;BME280;56604;48.652;9.194;2022-12-18T09:47:35;97387.44;;;-1.43;68.11
69411;BME280;56604;48.652;9.194;2022-12-18T09:50:07;97382.00;;;-1.40;67.10
69411;BME280;56604;48.652;9.194;2022-12-18T09:52:45;97368.16;;;-1.03;64.84
69411;BME280;56604;48.652;9.194;2022-12-18T09:55:23;97367.03;;;-0.64;65.28
69411;BME280;56604;48.652;9.194;2022-12-18T09:57:57;97367.44;;;-1.13;65.55
69411;BME280;56604;48.652;9.194;2022-12-18T10:00:25;97358.25;;;-0.54;64.29
69411;BME280;56604;48.652;9.194;2022-12-18T10:03:00;97372.16;;;-2.09;67.64
69411;BME280;56604;48.652;9.194;2022-12-18T10:05:33;97383.53;;;-1.47;67.31
69411;BME280;56604;48.652;9.194;2022-12-18T10:08:16;97377.47;;;-1.10;65.54
69411;BME280;56604;48.652;9.194;2022-12-18T10:10:48;97380.50;;;-1.88;67.18
69411;BME280;56604;48.652;9.194;2022-12-18T10:16:09;97374.59;;;-1.07;65.47
69411;BME280;56604;48.652;9.194;2022-12-18T10:21:35;97381.78;;;-2.01;67.94
69411;BME280;56604;48.652;9.194;2022-12-18T10:26:40;97378.19;;;-1.00;67.99
69411;BME280;56604;48.652;9.194;2022-12-18T10:29:11;97371.22;;;-0.46;63.88
69411;BME280;56604;48.652;9.194;2022-12-18T10:31:37;97385.78;;;-0.98;64.27
69411;BME280;56604;48.652;9.194;2022-12-18T10:34:02;97372.72;;;-0.35;64.16
69411;BME280;56604;48.652;9.194;2022-12-18T10:36:27;97367.59;;;-0.97;64.71
69411;BME280;56604;48.652;9.194;2022-12-18T10:38:53;97365.75;;;-0.42;64.28
69411;BME280;56604;48.652;9.194;2022-12-18T10:41:27;97366.06;;;-0.46;64.61
69411;BME280;56604;48.652;9.194;2022-12-18T10:44:20;97367.25;;;-0.06;64.23
69411;BME280;56604;48.652;9.194;2022-12-18T10:46:48;97378.63;;;0.10;63.34
69411;BME280;56604;48.652;9.194;2022-12-18T10:49:23;97372.69;;;-0.09;62.91
69411;BME280;56604;48.652;9.194;2022-12-18T10:51:51;97375.50;;;0.32;62.68
69411;BME280;56604;48.652;9.194;2022-12-18T10:54:18;97369.19;;;0.35;63.28
69411;BME280;56604;48.652;9.194;2022-12-18T10:56:44;97369.47;;;0.24;63.07
69411;BME280;56604;48.652;9.194;2022-12-18T10:59:12;97376.75;;;0.20;62.43
69411;BME280;56604;48.652;9.194;2022-12-18T11:01:53;97378.78;;;-0.18;62.33
69411;BME280;56604;48.652;9.194;2022-12-18T11:04:23;97371.03;;;0.59;61.90
69411;BME280;56604;48.652;9.194;2022-12-18T11:07:08;97362.38;;;0.93;60.63
69411;BME280;56604;48.652;9.194;2022-12-18T11:09:36;97354.63;;;1.09;60.46
69411;BME280;56604;48.652;9.194;2022-12-18T11:12:19;97349.41;;;0.84;61.09
69411;BME280;56604;48.652;9.194;2022-12-18T11:14:52;97349.91;;;1.04;59.34
69411;BME280;56604;48.652;9.194;2022-12-18T11:17:21;97352.94;;;0.59;60.83
69411;BME280;56604;48.652;9.194;2022-12-18T11:20:00;97349.75;;;0.22;61.92
69411;BME280;56604;48.652;9.194;2022-12-18T11:22:31;97354.19;;;-0.30;64.90
69411;BME280;56604;48.652;9.194;2022-12-18T11:27:22;97349.41;;;-0.69;66.58
69411;BME280;56604;48.652;9.194;2022-12-18T11:29:49;97347.59;;;-0.95;67.96
69411;BME280;56604;48.652;9.194;2022-12-18T11:34:52;97341.78;;;-0.53;66.93
69411;BME280;56604;48.652;9.194;2022-12-18T11:37:21;97345.47;;;-1.17;67.29
69411;BME280;56604;48.652;9.194;2022-12-18T11:39:49;97351.94;;;-2.04;69.81
69411;BME280;56604;48.652;9.194;2022-12-18T11:42:22;97357.06;;;-2.32;72.51
69411;BME280;56604;48.652;9.194;2022-12-18T11:47:21;97344.16;;;-2.22;73.34
69411;BME280;56604;48.652;9.194;2022-12-18T11:49:51;97336.22;;;-2.01;73.23
69411;BME280;56604;48.652;9.194;2022-12-18T11:52:26;97328.53;;;-1.83;72.31
69411;BME280;56604;48.652;9.194;2022-12-18T11:54:56;97337.63;;;-1.89;73.14
69411;BME280;56604;48.652;9.194;2022-12-18T12:03:17;97337.25;;;-1.94;72.65
69411;BME280;56604;48.652;9.194;2022-12-18T12:11:38;97321.22;;;-2.15;73.46
69411;BME280;56604;48.652;9.194;2022-12-18T12:14:23;97322.50;;;-2.29;73.20
69411;BME280;56604;48.652;9.194;2022-12-18T12:19:51;97325.47;;;-2.34;73.58
69411;BME280;56604;48.652;9.194;2022-12-18T12:25:37;97315.03;;;-2.69;74.74
69411;BME280;56604;48.652;9.194;2022-12-18T12:28:26;97311.50;;;-2.59;73.81
69411;BME280;56604;48.652;9.194;2022-12-18T12:36:57;97309.03;;;-2.23;73.30
69411;BME280;56604;48.652;9.194;2022-12-18T12:39:36;97311.84;;;-2.54;73.88
69411;BME280;56604;48.652;9.194;2022-12-18T12:42:05;97318.00;;;-2.74;74.52
69411;BME280;56604;48.652;9.194;2022-12-18T12:44:58;97323.06;;;-2.92;74.87
69411;BME280;56604;48.652;9.194;2022-12-18T12:47:30;97323.19;;;-2.94;74.70
69411;BME280;56604;48.652;9.194;2022-12-18T12:49:59;97320.75;;;-3.14;75.20
69411;BME280;56604;48.652;9.194;2022-12-18T12:52:35;97325.09;;;-3.34;76.31
69411;BME280;56604;48.652;9.194;2022-12-18T12:55:05;97332.16;;;-3.07;76.32
69411;BME280;56604;48.652;9.194;2022-12-18T12:57:40;97335.34;;;-2.86;75.29
69411;BME280;56604;48.652;9.194;2022-12-18T13:00:13;97331.59;;;-3.01;75.91
69411;BME280;56604;48.652;9.194;2022-12-18T13:08:30;97328.84;;;-2.23;73.46
69411;BME280;56604;48.652;9.194;2022-12-18T13:10:57;97340.13;;;-2.34;73.33
69411;BME280;56604;48.652;9.194;2022-12-18T13:13:55;97333.03;;;-2.22;73.07
69411;BME280;56604;48.652;9.194;2022-12-18T13:16:23;97343.63;;;-2.26;73.66
69411;BME280;56604;48.652;9.194;2022-12-18T13:18:58;97342.81;;;-2.26;72.41
69411;BME280;56604;48.652;9.194;2022-12-18T13:21:29;97340.94;;;-2.34;71.50
69411;BME280;56604;48.652;9.194;2022-12-18T13:23:55;97347.22;;;-2.09;72.04
69411;BME280;56604;48.652;9.194;2022-12-18T13:36:31;97323.94;;;-1.89;70.07
69411;BME280;56604;48.652;9.194;2022-12-18T13:41:53;97314.69;;;-1.82;69.57
69411;BME280;56604;48.652;9.194;2022-12-18T13:44:33;97322.44;;;-2.19;70.41
69411;BME280;56604;48.652;9.194;2022-12-18T13:47:01;97316.56;;;-2.02;70.98
69411;BME280;56604;48.652;9.194;2022-12-18T13:49:41;97322.84;;;-2.14;71.85
69411;BME280;56604;48.652;9.194;2022-12-18T13:52:21;97335.72;;;-2.14;70.58
69411;BME280;56604;48.652;9.194;2022-12-18T13:54:57;97324.56;;;-2.42;72.05
69411;BME280;56604;48.652;9.194;2022-12-18T13:57:30;97329.78;;;-2.72;73.06
69411;BME280;56604;48.652;9.194;2022-12-18T13:59:57;97332.00;;;-2.39;72.21
69411;BME280;56604;48.652;9.194;2022-12-18T14:02:25;97329.81;;;-2.24;71.72
69411;BME280;56604;48.652;9.194;2022-12-18T14:04:52;97331.34;;;-2.41;71.75
69411;BME280;56604;48.652;9.194;2022-12-18T14:07:24;97330.88;;;-2.64;72.95
69411;BME280;56604;48.652;9.194;2022-12-18T14:09:52;97328.31;;;-2.84;74.00
69411;BME280;56604;48.652;9.194;2022-12-18T14:12:26;97333.44;;;-2.64;73.91
69411;BME280;56604;48.652;9.194;2022-12-18T14:20:26;97325.22;;;-3.36;76.45
69411;BME280;56604;48.652;9.194;2022-12-18T14:22:52;97335.91;;;-3.31;76.73
69411;BME280;56604;48.652;9.194;2022-12-18T14:25:21;97335.88;;;-3.50;77.45
69411;BME280;56604;48.652;9.194;2022-12-18T14:27:50;97331.44;;;-3.48;77.88
69411;BME280;56604;48.652;9.194;2022-12-18T14:30:30;97341.72;;;-3.48;78.85
69411;BME280;56604;48.652;9.194;2022-12-18T14:33:13;97330.75;;;-3.50;78.86
69411;BME280;56604;48.652;9.194;2022-12-18T14:35:52;97337.22;;;-3.66;78.87
69411;BME280;56604;48.652;9.194;2022-12-18T14:38:26;97339.16;;;-3.58;79.33